createdAt,value
2023-04-26T00:01:20.647Z,12.93
2023-04-26T00:04:08.183Z,12.90
2023-04-26T00:06:54.245Z,12.93
2023-04-26T00:09:41.747Z,12.92
2023-04-26T00:12:27.968Z,12.94
2023-04-26T00:15:14.091Z,12.92
2023-04-26T00:17:59.928Z,12.86
2023-04-26T00:20:46.232Z,12.87
2023-04-26T00:23:32.276Z,12.89
2023-04-26T00:26:18.299Z,12.82
2023-04-26T00:29:04.812Z,12.89
2023-04-26T00:31:50.787Z,12.89
2023-04-26T00:34:37.789Z,12.93
2023-04-26T00:37:25.449Z,12.94
2023-04-26T00:40:11.873Z,12.94
2023-04-26T00:42:59.095Z,12.90
2023-04-26T00:45:45.879Z,12.91
2023-04-26T00:48:32.037Z,12.90
2023-04-26T00:51:18.004Z,12.90
2023-04-26T00:54:03.777Z,12.87
2023-04-26T00:56:52.237Z,12.87
2023-04-26T00:59:38.375Z,12.90
2023-04-26T01:02:24.347Z,12.93
2023-04-26T01:05:11.099Z,12.92
2023-04-26T01:07:57.804Z,12.90
2023-04-26T01:10:44.260Z,12.96
2023-04-26T01:13:32.407Z,12.95
2023-04-26T01:16:20.109Z,12.92
2023-04-26T01:19:12.953Z,12.90
2023-04-26T01:22:02.150Z,12.90
2023-04-26T01:24:51.183Z,12.88
2023-04-26T01:27:37.416Z,12.87
2023-04-26T01:30:23.293Z,12.83
2023-04-26T01:33:09.358Z,12.85
2023-04-26T01:35:55.220Z,12.85
2023-04-26T01:38:42.018Z,12.85
2023-04-26T01:41:27.946Z,12.85
2023-04-26T01:44:26.804Z,12.85
2023-04-26T01:47:12.644Z,12.88
2023-04-26T01:49:58.393Z,12.84
2023-04-26T01:52:44.535Z,12.88
2023-04-26T01:55:31.264Z,12.84
2023-04-26T01:58:17.440Z,12.91
2023-04-26T02:01:08.564Z,12.91
2023-04-26T02:03:56.204Z,12.92
2023-04-26T02:06:42.476Z,12.90
2023-04-26T02:09:28.251Z,12.89
2023-04-26T02:12:14.032Z,12.85
2023-04-26T02:15:00.178Z,12.85
2023-04-26T02:17:47.192Z,12.86
2023-04-26T02:20:33.685Z,12.87
2023-04-26T02:23:19.706Z,12.85
2023-04-26T02:26:05.591Z,12.86
2023-04-26T02:28:51.679Z,12.88
2023-04-26T02:31:38.044Z,12.86
2023-04-26T02:34:24.912Z,12.85
2023-04-26T02:37:11.867Z,12.83
2023-04-26T02:39:57.908Z,12.79
2023-04-26T02:42:43.678Z,12.82
2023-04-26T02:45:30.020Z,12.82
2023-04-26T02:48:15.896Z,12.81
2023-04-26T02:51:01.883Z,12.84
2023-04-26T02:53:47.794Z,12.84
2023-04-26T02:56:33.508Z,12.82
2023-04-26T02:59:20.070Z,12.84
2023-04-26T03:02:07.636Z,12.81
2023-04-26T03:04:53.887Z,12.75
2023-04-26T03:07:41.064Z,12.82
2023-04-26T03:10:27.069Z,12.80
2023-04-26T03:13:13.017Z,12.80
2023-04-26T03:15:59.200Z,12.80
2023-04-26T03:18:45.018Z,12.79
2023-04-26T03:21:31.959Z,12.80
2023-04-26T03:24:18.464Z,12.80
2023-04-26T03:27:04.732Z,12.81
2023-04-26T03:29:51.038Z,12.80
2023-04-26T03:32:37.000Z,12.76
2023-04-26T03:35:23.156Z,12.75
2023-04-26T03:38:09.353Z,12.78
2023-04-26T03:40:55.431Z,12.78
2023-04-26T03:43:42.680Z,12.72
2023-04-26T03:46:28.578Z,12.67
2023-04-26T03:49:14.878Z,12.65
2023-04-26T03:52:00.833Z,12.60
2023-04-26T03:54:47.091Z,12.56
2023-04-26T03:57:33.129Z,12.47
2023-04-26T04:00:19.806Z,12.50
2023-04-26T04:03:08.832Z,12.50
2023-04-26T04:05:54.953Z,12.48
2023-04-26T04:08:41.025Z,12.47
2023-04-26T04:11:27.714Z,12.48
2023-04-26T04:14:13.453Z,12.47
2023-04-26T04:16:59.819Z,12.49
2023-04-26T04:19:46.874Z,12.51
2023-04-26T04:22:32.755Z,12.53
2023-04-26T04:25:21.512Z,12.54
2023-04-26T04:28:08.638Z,12.53
2023-04-26T04:30:57.197Z,12.52
2023-04-26T04:33:43.681Z,12.51
2023-04-26T04:36:32.598Z,12.44
2023-04-26T04:39:19.121Z,12.38
2023-04-26T04:42:05.246Z,12.31
2023-04-26T04:44:51.351Z,12.25
2023-04-26T04:47:39.904Z,12.24
2023-04-26T04:50:25.732Z,12.21
2023-04-26T04:53:14.845Z,12.16
2023-04-26T04:56:00.993Z,12.17
2023-04-26T04:58:47.951Z,12.17
2023-04-26T05:01:39.482Z,12.13
2023-04-26T05:04:31.944Z,12.10
2023-04-26T05:07:18.595Z,12.12
2023-04-26T05:10:05.665Z,12.10
2023-04-26T05:12:51.760Z,12.12
2023-04-26T05:15:38.472Z,12.14
2023-04-26T05:18:24.511Z,12.12
2023-04-26T05:21:10.465Z,12.17
2023-04-26T05:25:00.244Z,12.14
2023-04-26T05:27:46.671Z,12.18
2023-04-26T05:30:55.898Z,12.19
2023-04-26T05:33:52.229Z,12.21
2023-04-26T05:36:47.771Z,12.25
2023-04-26T05:39:33.552Z,12.20
2023-04-26T05:42:19.428Z,12.22
2023-04-26T05:45:06.745Z,12.23
2023-04-26T06:05:47.503Z,12.10
2023-04-26T06:08:33.701Z,12.05
2023-04-26T06:11:19.741Z,12.02
2023-04-26T06:14:06.792Z,11.99
2023-04-26T06:16:53.830Z,12.00
2023-04-26T06:19:40.482Z,11.93
2023-04-26T06:22:26.270Z,11.94
2023-04-26T06:25:13.092Z,11.86
2023-04-26T06:27:59.092Z,11.89
2023-04-26T06:30:45.970Z,11.89
2023-04-26T06:33:32.598Z,11.93
2023-04-26T06:36:18.509Z,12.01
2023-04-26T06:39:04.484Z,11.99
2023-04-26T06:41:52.639Z,12.06
2023-04-26T06:44:46.952Z,12.04
2023-04-26T06:47:33.131Z,12.08
2023-04-26T06:50:19.187Z,12.09
2023-04-26T06:53:05.247Z,12.03
2023-04-26T06:55:53.228Z,12.06
2023-04-26T06:58:39.287Z,12.07
2023-04-26T07:01:24.950Z,12.05
2023-04-26T07:04:11.346Z,12.02
2023-04-26T07:06:57.930Z,12.04
2023-04-26T07:09:44.117Z,12.04
2023-04-26T07:12:30.054Z,12.06
2023-04-26T07:15:16.050Z,12.09
2023-04-26T07:18:02.087Z,12.05
2023-04-26T07:20:48.356Z,12.08
2023-04-26T07:23:34.112Z,12.06
2023-04-26T07:26:19.731Z,12.09
2023-04-26T07:29:05.574Z,12.11
2023-04-26T07:31:51.420Z,12.12
2023-04-26T07:34:37.714Z,12.12
2023-04-26T07:37:23.529Z,12.14
2023-04-26T07:40:11.041Z,12.07
2023-04-26T07:42:57.209Z,12.04
2023-04-26T07:45:43.470Z,11.99
2023-04-26T07:48:29.434Z,11.97
2023-04-26T07:51:15.225Z,11.97
2023-04-26T07:54:01.848Z,12.01
2023-04-26T07:56:47.655Z,12.03
2023-04-26T07:59:33.481Z,12.03
2023-04-26T08:02:21.610Z,12.13
2023-04-26T08:05:11.167Z,12.09
2023-04-26T08:07:57.489Z,12.16
2023-04-26T08:10:43.599Z,12.19
2023-04-26T08:13:29.612Z,12.20
2023-04-26T08:16:15.635Z,12.23
2023-04-26T08:19:03.080Z,12.24
2023-04-26T08:21:48.796Z,12.20
2023-04-26T08:24:34.503Z,12.21
2023-04-26T08:27:20.123Z,12.17
2023-04-26T08:30:06.940Z,12.18
2023-04-26T08:32:52.995Z,12.15
2023-04-26T08:35:38.752Z,12.10
2023-04-26T09:27:16.820Z,11.75
2023-04-26T09:30:16.018Z,11.76
2023-04-26T09:33:04.705Z,11.86
2023-04-26T09:35:50.597Z,11.95
2023-04-26T09:38:42.433Z,12.00
2023-04-26T09:41:45.019Z,12.10
2023-04-26T09:44:34.102Z,12.24
2023-04-26T09:47:22.235Z,12.42
2023-04-26T09:50:08.449Z,12.50
2023-04-26T09:52:54.400Z,12.56
2023-04-26T09:55:40.219Z,12.60
2023-04-26T09:58:26.766Z,12.61
2023-04-26T10:01:14.838Z,12.69
2023-04-26T10:04:04.829Z,12.75
2023-04-26T10:06:51.097Z,12.84
2023-04-26T10:09:37.138Z,12.90
2023-04-26T10:12:22.947Z,13.00
2023-04-26T10:15:10.385Z,13.06
2023-04-26T10:17:56.383Z,13.10
2023-04-26T10:20:45.127Z,13.21
2023-04-26T10:23:33.401Z,13.27
2023-04-26T10:26:48.240Z,13.36
2023-04-26T10:29:55.871Z,13.46
2023-04-26T10:32:57.117Z,13.58
2023-04-26T10:36:07.028Z,13.64
2023-04-26T10:39:25.155Z,13.69
2023-04-26T10:42:26.761Z,13.77
2023-04-26T10:45:29.233Z,13.77
2023-04-26T10:48:20.016Z,13.85
2023-04-26T10:51:09.205Z,13.89
2023-04-26T10:53:55.285Z,13.98
2023-04-26T10:56:42.555Z,14.04
2023-04-26T10:59:43.361Z,14.12
2023-04-26T11:02:52.370Z,14.23
2023-04-26T11:05:42.859Z,14.30
2023-04-26T11:08:31.778Z,14.33
2023-04-26T11:11:21.425Z,14.37
2023-04-26T11:14:08.965Z,14.44
2023-04-26T11:16:54.989Z,14.51
2023-04-26T11:19:47.155Z,14.62
2023-04-26T11:22:34.911Z,14.68
2023-04-26T11:25:20.952Z,14.77
2023-04-26T11:28:07.059Z,14.85
2023-04-26T11:30:53.056Z,14.93
2023-04-26T11:33:41.668Z,15.05
2023-04-26T11:36:28.467Z,15.14
2023-04-26T11:39:15.083Z,15.25
2023-04-26T11:42:08.217Z,15.37
2023-04-26T11:44:57.677Z,15.47
2023-04-26T11:47:44.994Z,15.55
2023-04-26T11:50:32.394Z,15.66
2023-04-26T11:53:18.598Z,15.70
2023-04-26T11:56:18.050Z,15.79
2023-04-26T11:59:04.234Z,15.93
2023-04-26T12:01:51.763Z,16.05
2023-04-26T12:04:38.874Z,16.15
2023-04-26T12:07:24.818Z,16.24
2023-04-26T12:10:15.778Z,16.34
2023-04-26T12:13:04.973Z,16.38
2023-04-26T12:15:52.453Z,16.47
2023-04-26T12:18:39.967Z,16.65
2023-04-26T12:21:27.529Z,16.80
2023-04-26T12:24:28.716Z,16.98
2023-04-26T12:27:26.055Z,17.04
2023-04-26T12:30:13.099Z,17.06
2023-04-26T12:33:09.079Z,17.05
2023-04-26T12:36:12.034Z,17.04
2023-04-26T12:38:58.209Z,16.98
2023-04-26T12:41:47.494Z,17.01
2023-04-26T12:44:33.910Z,16.98
2023-04-26T12:47:19.888Z,16.95
2023-04-26T12:50:06.793Z,16.95
2023-04-26T12:52:52.878Z,16.97
2023-04-26T12:55:39.820Z,16.97
2023-04-26T12:58:25.994Z,16.99
2023-04-26T13:01:13.443Z,16.97
2023-04-26T13:04:00.955Z,16.97
2023-04-26T13:06:47.217Z,17.13
2023-04-26T13:09:33.174Z,17.24
2023-04-26T13:12:19.097Z,17.50
2023-04-26T13:15:08.532Z,17.70
2023-04-26T13:17:54.629Z,17.77
2023-04-26T13:20:40.749Z,17.71
2023-04-26T13:23:26.744Z,17.62
2023-04-26T13:26:15.225Z,17.61
2023-04-26T13:29:01.280Z,17.55
2023-04-26T13:31:47.500Z,17.43
2023-04-26T13:34:33.510Z,17.43
2023-04-26T13:37:21.480Z,17.42
2023-04-26T13:40:08.354Z,17.44
2023-04-26T13:42:54.401Z,17.47
2023-04-26T13:45:40.237Z,17.54
2023-04-26T13:48:26.787Z,17.69
2023-04-26T13:51:12.710Z,17.85
2023-04-26T13:53:58.892Z,18.01
2023-04-26T13:56:44.981Z,18.13
2023-04-26T13:59:31.141Z,18.29
2023-04-26T14:02:17.620Z,18.34
2023-04-26T14:05:05.240Z,18.36
2023-04-26T14:07:53.626Z,18.40
2023-04-26T14:10:40.929Z,18.39
2023-04-26T14:13:26.947Z,18.35
2023-04-26T14:16:12.964Z,18.34
2023-04-26T14:18:58.999Z,18.27
2023-04-26T14:21:44.895Z,18.16
2023-04-26T14:24:30.727Z,17.97
2023-04-26T14:27:17.115Z,17.75
2023-04-26T14:30:03.472Z,17.46
2023-04-26T14:32:49.452Z,17.22
2023-04-26T14:35:36.189Z,17.03
2023-04-26T14:38:22.387Z,16.95
2023-04-26T14:41:08.723Z,17.09
2023-04-26T14:43:54.739Z,17.28
2023-04-26T14:46:41.755Z,17.42
2023-04-26T14:49:27.574Z,17.73
2023-04-26T14:52:13.254Z,18.24
2023-04-26T14:54:59.135Z,18.96
2023-04-26T14:57:45.508Z,19.67
2023-04-26T15:00:31.394Z,20.31
2023-04-26T15:03:17.956Z,21.10
2023-04-26T15:06:03.830Z,21.87
2023-04-26T15:08:50.655Z,22.77
2023-04-26T15:11:36.606Z,23.43
2023-04-26T15:14:23.185Z,24.10
2023-04-26T15:17:09.288Z,24.70
2023-04-26T15:19:56.452Z,25.31
2023-04-26T15:22:43.055Z,25.60
2023-04-26T15:25:29.541Z,25.51
2023-04-26T15:28:16.532Z,25.53
2023-04-26T15:31:04.458Z,25.77
2023-04-26T15:33:50.959Z,25.92
2023-04-26T15:36:37.158Z,26.07
2023-04-26T15:39:23.443Z,26.30
2023-04-26T15:42:09.731Z,26.18
2023-04-26T15:44:56.048Z,25.82
2023-04-26T15:47:42.118Z,25.34
2023-04-26T15:50:28.165Z,24.64
2023-04-26T15:53:14.392Z,23.87
2023-04-26T15:56:00.192Z,23.04
2023-04-26T15:58:46.816Z,22.26
2023-04-26T16:01:32.913Z,21.51
2023-04-26T16:04:18.812Z,20.93
2023-04-26T16:07:05.037Z,20.42
2023-04-26T16:09:50.732Z,19.93
2023-04-26T16:12:39.547Z,19.53
2023-04-26T16:15:26.119Z,19.17
2023-04-26T16:18:11.881Z,18.91
2023-04-26T16:21:07.649Z,18.66
2023-04-26T16:23:53.881Z,18.41
2023-04-26T16:26:40.419Z,18.22
2023-04-26T16:29:26.440Z,17.98
2023-04-26T16:32:12.350Z,17.77
2023-04-26T16:34:58.148Z,17.52
2023-04-26T16:37:44.816Z,17.31
2023-04-26T16:40:30.686Z,17.08
2023-04-26T16:43:17.118Z,16.87
2023-04-26T16:46:08.084Z,16.63
2023-04-26T16:48:54.553Z,16.45
2023-04-26T16:51:42.267Z,16.35
2023-04-26T16:54:28.455Z,16.24
2023-04-26T16:57:14.384Z,16.20
2023-04-26T17:00:00.564Z,16.14
2023-04-26T17:02:49.207Z,15.99
2023-04-26T17:05:49.159Z,15.95
2023-04-26T17:08:35.537Z,15.92
2023-04-26T17:11:22.972Z,15.76
2023-04-26T17:14:09.812Z,15.68
2023-04-26T17:16:55.993Z,15.60
2023-04-26T17:19:42.004Z,15.52
2023-04-26T17:22:27.802Z,15.43
2023-04-26T17:25:13.889Z,15.33
2023-04-26T17:27:59.958Z,15.32
2023-04-26T17:30:45.738Z,15.27
2023-04-26T17:33:31.988Z,15.13
2023-04-26T17:36:18.017Z,15.08
2023-04-26T17:39:04.057Z,14.96
2023-04-26T17:41:51.359Z,14.94
2023-04-26T17:44:37.239Z,14.91
2023-04-26T17:47:23.198Z,14.93
2023-04-26T17:50:09.703Z,14.88
2023-04-26T17:53:14.038Z,14.87
2023-04-26T17:56:07.735Z,14.80
2023-04-26T17:58:53.626Z,14.76
2023-04-26T18:01:39.828Z,14.61
2023-04-26T18:05:08.745Z,14.61
2023-04-26T18:07:54.606Z,14.55
2023-04-26T18:10:48.582Z,14.47
2023-04-26T18:13:41.059Z,14.40
2023-04-26T18:16:30.306Z,14.34
2023-04-26T18:19:17.031Z,14.28
2023-04-26T18:22:03.014Z,14.25
2023-04-26T18:24:49.187Z,14.25
2023-04-26T18:27:35.192Z,14.24
2023-04-26T18:30:21.549Z,14.24
2023-04-26T18:33:07.900Z,14.23
2023-04-26T18:35:54.564Z,14.21
2023-04-26T18:38:40.767Z,14.24
2023-04-26T18:41:26.838Z,14.25
2023-04-26T18:44:15.540Z,14.25
2023-04-26T18:47:01.663Z,14.26
2023-04-26T18:49:47.468Z,14.27
2023-04-26T18:52:35.135Z,14.27
2023-04-26T18:55:21.176Z,14.26
2023-04-26T18:58:14.663Z,14.25
2023-04-26T19:01:01.150Z,14.27
2023-04-26T19:03:48.560Z,14.23
2023-04-26T19:06:35.015Z,14.20
2023-04-26T19:09:21.818Z,14.18
2023-04-26T19:16:35.460Z,13.97
2023-04-26T19:19:21.969Z,13.91
2023-04-26T19:22:08.262Z,13.83
2023-04-26T19:24:54.337Z,13.78
2023-04-26T19:32:00.287Z,13.66
2023-04-26T20:30:26.043Z,12.95
2023-04-26T20:33:11.880Z,12.91
2023-04-26T20:35:58.130Z,12.86
2023-04-26T21:20:37.716Z,12.36
2023-04-26T21:38:37.968Z,12.18
2023-04-26T21:43:08.004Z,12.16
2023-04-26T21:47:37.967Z,12.18
2023-04-26T21:52:07.932Z,12.18
2023-04-26T21:56:39.124Z,12.18
2023-04-26T22:01:25.556Z,12.21
2023-04-26T22:05:49.808Z,12.26
2023-04-26T22:37:55.930Z,12.05
2023-04-26T22:42:26.030Z,12.06
2023-04-26T22:46:55.997Z,12.00
2023-04-26T22:51:26.003Z,11.99
2023-04-26T22:55:56.123Z,11.99
2023-04-26T23:00:26.089Z,11.97
2023-04-26T23:04:57.405Z,11.98
2023-04-26T23:09:27.065Z,11.96
2023-04-26T23:13:57.050Z,11.94
2023-04-26T23:18:27.005Z,11.92
2023-04-26T23:22:57.022Z,11.88
2023-04-26T23:27:27.012Z,11.87
2023-04-26T23:31:57.082Z,11.86
2023-04-26T23:36:27.040Z,11.78
2023-04-26T23:40:57.152Z,11.79
2023-04-26T23:45:29.283Z,11.70
2023-04-26T23:49:59.006Z,11.64
2023-04-26T23:54:30.495Z,11.63
2023-04-26T23:59:00.029Z,11.61
